createdAt,value
2019-04-05T00:01:30.384Z,14.77
2019-04-05T00:03:57.873Z,14.57
2019-04-05T00:06:25.369Z,13.43
2019-04-05T00:08:52.849Z,15.87
2019-04-05T00:11:20.364Z,12.73
2019-04-05T00:13:47.921Z,14.20
2019-04-05T00:16:15.367Z,12.67
2019-04-05T00:18:42.807Z,12.90
2019-04-05T00:21:10.208Z,14.00
2019-04-05T00:23:37.763Z,14.00
2019-04-05T00:26:05.559Z,11.40
2019-04-05T00:28:33.008Z,12.30
2019-04-05T00:31:00.425Z,13.03
2019-04-05T00:33:28.013Z,12.23
2019-04-05T00:35:55.403Z,13.00
2019-04-05T00:38:22.802Z,12.57
2019-04-05T00:40:50.234Z,13.27
2019-04-05T00:43:17.628Z,13.70
2019-04-05T00:45:45.118Z,13.17
2019-04-05T00:48:12.528Z,13.60
2019-04-05T00:50:40.003Z,13.97
2019-04-05T00:53:07.514Z,13.50
2019-04-05T00:55:35.193Z,13.57
2019-04-05T00:58:02.660Z,13.07
2019-04-05T01:00:30.398Z,14.07
2019-04-05T01:02:57.792Z,13.80
2019-04-05T01:05:25.233Z,13.73
2019-04-05T01:07:52.628Z,13.73
2019-04-05T01:10:20.193Z,14.70
2019-04-05T01:12:47.575Z,14.73
2019-04-05T01:15:15.130Z,14.17
2019-04-05T01:17:43.123Z,14.40
2019-04-05T01:20:10.885Z,15.87
2019-04-05T01:22:38.882Z,15.13
2019-04-05T01:25:06.438Z,14.80
2019-04-05T01:27:34.509Z,14.77
2019-04-05T01:30:02.055Z,15.33
2019-04-05T01:32:29.930Z,14.40
2019-04-05T01:34:57.388Z,15.10
2019-04-05T01:37:25.113Z,15.93
2019-04-05T01:39:52.591Z,14.97
2019-04-05T01:42:20.094Z,15.87
2019-04-05T01:44:47.776Z,15.20
2019-04-05T01:47:20.873Z,16.90
2019-04-05T01:50:02.578Z,16.27
2019-04-05T01:52:30.094Z,16.47
2019-04-05T01:54:57.959Z,16.17
2019-04-05T01:57:25.384Z,16.37
2019-04-05T01:59:52.963Z,16.00
2019-04-05T02:02:20.553Z,17.23
2019-04-05T02:04:48.025Z,18.10
2019-04-05T02:07:15.738Z,16.33
2019-04-05T02:09:43.365Z,18.63
2019-04-05T02:12:10.955Z,18.53
2019-04-05T02:14:38.642Z,18.83
2019-04-05T02:17:10.398Z,18.47
2019-04-05T02:19:37.884Z,19.37
2019-04-05T02:22:05.665Z,18.87
2019-04-05T02:24:33.030Z,18.53
2019-04-05T02:27:00.512Z,16.97
2019-04-05T02:29:27.968Z,19.53
2019-04-05T02:31:55.698Z,19.00
2019-04-05T02:34:23.158Z,20.07
2019-04-05T02:36:50.607Z,20.47
2019-04-05T02:39:18.108Z,19.47
2019-04-05T02:41:45.849Z,20.07
2019-04-05T02:44:13.644Z,20.40
2019-04-05T02:46:42.779Z,19.93
2019-04-05T02:49:10.378Z,19.83
2019-04-05T02:51:38.515Z,21.93
2019-04-05T02:54:06.207Z,21.20
2019-04-05T02:56:35.600Z,20.33
2019-04-05T02:59:03.271Z,21.33
2019-04-05T03:01:32.054Z,21.67
2019-04-05T03:03:59.831Z,20.90
2019-04-05T03:06:28.084Z,21.60
2019-04-05T03:08:55.687Z,19.03
2019-04-05T03:11:26.745Z,22.70
2019-04-05T03:13:56.434Z,21.23
2019-04-05T03:16:40.424Z,19.33
2019-04-05T03:19:04.335Z,21.07
2019-04-05T03:21:32.905Z,20.57
2019-04-05T03:24:03.622Z,21.17
2019-04-05T03:26:34.195Z,22.20
2019-04-05T03:29:04.236Z,22.33
2019-04-05T03:31:31.784Z,20.77
2019-04-05T03:33:59.702Z,20.03
2019-04-05T03:36:27.505Z,20.20
2019-04-05T03:38:55.395Z,20.87
2019-04-05T03:41:23.025Z,20.17
2019-04-05T03:43:50.537Z,19.40
2019-04-05T03:46:18.215Z,20.23
2019-04-05T03:48:45.932Z,21.00
2019-04-05T03:51:13.375Z,20.37
2019-04-05T03:53:40.874Z,21.47
2019-04-05T03:56:08.423Z,20.63
2019-04-05T03:58:35.807Z,20.50
2019-04-05T04:01:03.448Z,19.37
2019-04-05T04:03:30.905Z,20.63
2019-04-05T04:05:59.023Z,20.50
2019-04-05T04:08:26.448Z,20.00
2019-04-05T04:10:54.581Z,19.43
2019-04-05T04:13:22.165Z,21.43
2019-04-05T04:15:50.382Z,20.47
2019-04-05T04:18:17.863Z,20.70
2019-04-05T04:20:47.983Z,20.07
2019-04-05T04:23:15.404Z,19.87
2019-04-05T04:25:42.899Z,19.67
2019-04-05T04:28:10.462Z,18.63
2019-04-05T04:30:37.967Z,19.77
2019-04-05T04:33:05.785Z,19.00
2019-04-05T04:35:33.490Z,19.33
2019-04-05T04:38:01.063Z,19.93
2019-04-05T04:40:28.804Z,20.27
2019-04-05T04:42:56.231Z,20.37
2019-04-05T04:45:23.622Z,29.67
2019-04-05T04:47:51.061Z,19.97
2019-04-05T04:50:19.151Z,19.80
2019-04-05T04:52:46.982Z,22.83
2019-04-05T04:55:14.463Z,21.23
2019-04-05T04:57:42.007Z,20.77
2019-04-05T05:00:09.772Z,20.50
2019-04-05T05:02:37.223Z,20.27
2019-04-05T05:05:05.883Z,20.00
2019-04-05T05:07:33.507Z,19.63
2019-04-05T05:10:03.320Z,19.87
2019-04-05T05:12:30.378Z,19.30
2019-04-05T05:14:57.908Z,19.60
2019-04-05T05:17:37.465Z,18.60
2019-04-05T05:19:54.850Z,18.37
2019-04-05T05:22:22.779Z,19.17
2019-04-05T05:24:53.013Z,18.87
2019-04-05T05:27:20.871Z,19.93
2019-04-05T05:29:48.273Z,19.37
2019-04-05T05:32:15.828Z,18.57
2019-04-05T05:34:43.523Z,19.37
2019-04-05T05:37:11.053Z,18.90
2019-04-05T05:39:38.474Z,19.03
2019-04-05T05:42:05.928Z,19.20
2019-04-05T05:44:33.325Z,18.87
2019-04-05T05:47:00.778Z,17.80
2019-04-05T05:49:28.148Z,19.30
2019-04-05T05:51:55.854Z,17.63
2019-04-05T05:54:23.372Z,17.87
2019-04-05T05:56:50.972Z,19.30
2019-04-05T05:59:18.539Z,18.73
2019-04-05T06:01:46.126Z,18.27
2019-04-05T06:04:13.892Z,17.90
2019-04-05T06:06:41.431Z,17.17
2019-04-05T06:09:09.051Z,18.03
2019-04-05T06:11:36.652Z,18.63
2019-04-05T06:14:04.271Z,16.37
2019-04-05T06:16:31.832Z,17.50
2019-04-05T06:18:59.492Z,16.87
2019-04-05T06:21:27.212Z,18.07
2019-04-05T06:23:54.773Z,17.43
2019-04-05T06:26:22.295Z,16.47
2019-04-05T06:28:50.093Z,17.73
2019-04-05T06:31:17.852Z,17.03
2019-04-05T06:33:45.471Z,17.27
2019-04-05T06:36:13.072Z,16.50
2019-04-05T06:38:40.671Z,16.70
2019-04-05T06:41:08.272Z,16.53
2019-04-05T06:43:36.193Z,18.40
2019-04-05T06:46:03.878Z,16.57
2019-04-05T06:48:31.752Z,16.37
2019-04-05T06:50:59.292Z,17.27
2019-04-05T06:53:26.912Z,14.97
2019-04-05T06:55:54.452Z,15.63
2019-04-05T06:58:28.906Z,16.87
2019-04-05T07:00:57.204Z,15.53
2019-04-05T07:03:21.593Z,15.77
2019-04-05T07:05:49.211Z,16.30
2019-04-05T07:08:18.375Z,16.63
2019-04-05T07:10:46.193Z,16.20
2019-04-05T07:13:13.911Z,16.33
2019-04-05T07:15:41.472Z,16.87
2019-04-05T07:18:09.172Z,16.83
2019-04-05T07:20:36.793Z,16.03
2019-04-05T07:23:04.615Z,16.17
2019-04-05T07:25:32.231Z,16.10
2019-04-05T07:27:59.971Z,14.97
2019-04-05T07:30:28.945Z,15.87
2019-04-05T07:32:56.806Z,15.80
2019-04-05T07:35:33.289Z,15.47
2019-04-05T07:37:54.012Z,14.00
2019-04-05T07:40:22.456Z,15.00
2019-04-05T07:42:50.252Z,14.13
2019-04-05T07:45:17.811Z,14.17
2019-04-05T07:47:45.398Z,15.00
2019-04-05T07:50:13.170Z,14.23
2019-04-05T07:52:40.792Z,15.13
2019-04-05T07:55:08.752Z,15.10
2019-04-05T07:57:36.312Z,15.13
2019-04-05T08:00:07.113Z,13.07
2019-04-05T08:02:34.737Z,15.73
2019-04-05T08:05:02.280Z,14.67
2019-04-05T08:07:33.608Z,15.90
2019-04-05T08:10:03.099Z,14.97
2019-04-05T08:12:32.143Z,13.67
2019-04-05T08:15:01.461Z,14.13
2019-04-05T08:17:29.646Z,14.27
2019-04-05T08:20:00.455Z,13.33
2019-04-05T08:22:28.095Z,13.80
2019-04-05T08:24:55.714Z,13.43
2019-04-05T08:27:23.291Z,12.87
2019-04-05T08:29:51.072Z,12.87
2019-04-05T08:32:18.631Z,13.47
2019-04-05T08:34:46.272Z,11.97
2019-04-05T08:37:13.814Z,13.50
2019-04-05T08:39:42.713Z,13.37
2019-04-05T08:42:10.909Z,13.23
2019-04-05T08:44:38.931Z,12.77
2019-04-05T08:47:07.794Z,13.00
2019-04-05T08:49:36.120Z,12.60
2019-04-05T08:52:04.354Z,12.87
2019-04-05T08:54:36.307Z,12.93
2019-04-05T08:57:04.471Z,12.50
2019-04-05T08:59:32.332Z,12.97
2019-04-05T09:02:00.488Z,13.07
2019-04-05T09:04:28.611Z,12.57
2019-04-05T09:06:56.563Z,12.73
2019-04-05T09:09:30.208Z,13.13
2019-04-05T09:11:58.421Z,12.47
2019-04-05T09:14:26.398Z,12.93
2019-04-05T09:16:56.130Z,13.50
2019-04-05T09:19:24.286Z,13.10
2019-04-05T09:21:53.074Z,12.47
2019-04-05T09:24:20.752Z,12.53
2019-04-05T09:26:48.291Z,13.37
2019-04-05T09:29:15.952Z,13.00
2019-04-05T09:31:43.512Z,13.73
2019-04-05T09:34:11.372Z,12.50
2019-04-05T09:36:38.832Z,13.10
2019-04-05T09:39:13.653Z,12.57
2019-04-05T09:41:40.214Z,12.37
2019-04-05T09:44:07.672Z,12.53
2019-04-05T09:46:45.967Z,11.97
2019-04-05T09:49:05.016Z,13.37
2019-04-05T09:51:32.699Z,13.43
2019-04-05T09:54:00.254Z,13.17
2019-04-05T09:56:28.292Z,12.40
2019-04-05T09:58:55.873Z,13.03
2019-04-05T10:01:23.533Z,13.30
2019-04-05T10:03:51.194Z,11.47
2019-04-05T10:06:18.892Z,13.93
2019-04-05T10:08:46.417Z,12.97
2019-04-05T10:11:14.252Z,12.53
2019-04-05T10:13:43.611Z,12.80
2019-04-05T10:16:11.470Z,13.53
2019-04-05T10:18:39.232Z,12.47
2019-04-05T10:21:06.793Z,15.30
2019-04-05T10:23:34.392Z,17.27
2019-04-05T10:26:02.995Z,26.80
2019-04-05T10:28:30.652Z,21.37
2019-04-05T10:30:58.633Z,13.13
2019-04-05T10:33:26.311Z,13.43
2019-04-05T10:35:54.132Z,17.37
2019-04-05T10:38:21.791Z,14.20
2019-04-05T10:40:49.539Z,13.27
2019-04-05T10:43:17.113Z,13.77
2019-04-05T10:45:44.752Z,13.07
2019-04-05T10:48:12.311Z,13.57
2019-04-05T10:50:39.912Z,12.47
2019-04-05T10:53:07.512Z,13.10
2019-04-05T10:55:36.760Z,13.63
2019-04-05T10:58:04.992Z,12.40
2019-04-05T11:00:32.592Z,13.77
2019-04-05T11:03:00.377Z,13.37
2019-04-05T11:05:28.032Z,12.80
2019-04-05T11:07:55.613Z,12.93
2019-04-05T11:10:23.291Z,13.93
2019-04-05T11:12:50.912Z,13.77
2019-04-05T11:15:18.646Z,13.60
2019-04-05T11:17:47.248Z,13.77
2019-04-05T11:20:22.850Z,13.43
2019-04-05T11:22:46.690Z,13.20
2019-04-05T11:25:20.582Z,13.80
2019-04-05T11:27:48.032Z,12.60
2019-04-05T11:30:30.933Z,13.60
2019-04-05T11:32:58.871Z,13.40
2019-04-05T11:35:28.933Z,13.03
2019-04-05T11:37:59.631Z,13.27
2019-04-05T11:40:28.435Z,14.23
2019-04-05T11:42:58.406Z,13.27
2019-04-05T11:45:26.322Z,14.93
2019-04-05T11:47:57.708Z,13.13
2019-04-05T11:50:34.533Z,13.30
2019-04-05T11:53:01.415Z,13.57
2019-04-05T11:55:31.622Z,12.53
2019-04-05T11:57:59.512Z,14.53
2019-04-05T12:00:52.248Z,13.10
2019-04-05T12:03:20.713Z,13.37
2019-04-05T12:05:48.451Z,14.27
2019-04-05T12:08:16.272Z,15.20
2019-04-05T12:10:44.072Z,14.23
2019-04-05T12:13:11.832Z,14.10
2019-04-05T12:15:44.311Z,15.00
2019-04-05T12:18:16.705Z,13.47
2019-04-05T12:20:59.757Z,14.60
2019-04-05T12:23:22.052Z,14.40
2019-04-05T12:25:56.953Z,14.53
2019-04-05T12:28:24.614Z,14.50
2019-04-05T12:31:01.626Z,13.90
2019-04-05T12:33:30.426Z,15.33
2019-04-05T12:35:58.652Z,15.10
2019-04-05T12:38:31.551Z,14.80
2019-04-05T12:41:02.096Z,15.30
2019-04-05T12:43:31.194Z,14.30
2019-04-05T12:45:59.192Z,15.20
2019-04-05T12:48:26.932Z,18.33
2019-04-05T12:51:01.126Z,14.40
2019-04-05T12:53:26.285Z,15.00
2019-04-05T12:55:56.871Z,14.27
2019-04-05T12:58:25.852Z,15.23
2019-04-05T13:00:53.688Z,15.13
2019-04-05T13:03:23.131Z,14.20
2019-04-05T13:05:51.583Z,15.77
2019-04-05T13:08:23.744Z,14.37
2019-04-05T13:10:51.611Z,15.50
2019-04-05T13:13:19.392Z,16.17
2019-04-05T13:15:47.072Z,16.27
2019-04-05T13:18:14.772Z,15.80
2019-04-05T13:20:42.372Z,15.43
2019-04-05T13:23:11.291Z,16.10
2019-04-05T13:25:40.944Z,14.27
2019-04-05T13:28:13.492Z,15.60
2019-04-05T13:30:38.093Z,16.03
2019-04-05T13:33:05.792Z,16.00
2019-04-05T13:35:33.472Z,16.87
2019-04-05T13:38:01.424Z,16.60
2019-04-05T13:40:29.603Z,14.57
2019-04-05T13:43:01.693Z,16.27
2019-04-05T13:45:28.772Z,16.93
2019-04-05T13:47:56.452Z,16.13
2019-04-05T13:50:24.395Z,17.20
2019-04-05T13:52:52.132Z,17.80
2019-04-05T13:55:19.741Z,19.20
2019-04-05T13:57:47.472Z,18.47
2019-04-05T14:00:18.119Z,15.40
2019-04-05T14:02:46.212Z,15.93
2019-04-05T14:05:13.991Z,16.07
2019-04-05T14:07:42.053Z,17.07
2019-04-05T14:10:12.343Z,17.60
2019-04-05T14:12:40.117Z,17.63
2019-04-05T14:15:11.296Z,16.60
2019-04-05T14:17:38.933Z,18.37
2019-04-05T14:20:09.058Z,19.60
2019-04-05T14:22:36.622Z,19.43
2019-04-05T14:25:05.275Z,17.57
2019-04-05T14:27:35.140Z,18.77
2019-04-05T14:30:03.150Z,18.80
2019-04-05T14:32:31.311Z,16.40
2019-04-05T14:34:59.112Z,20.67
2019-04-05T14:37:28.232Z,20.60
2019-04-05T14:39:55.971Z,17.03
2019-04-05T14:45:21.492Z,17.83
2019-04-05T14:47:49.175Z,16.67
2019-04-05T14:50:17.134Z,21.47
2019-04-05T14:52:45.332Z,20.40
2019-04-05T14:55:13.216Z,18.33
2019-04-05T14:57:41.760Z,19.27
2019-04-05T15:00:14.585Z,17.37
2019-04-05T15:02:43.780Z,16.73
2019-04-05T15:05:10.677Z,16.50
2019-04-05T15:07:38.233Z,18.90
2019-04-05T15:10:07.983Z,18.87
2019-04-05T15:12:49.967Z,18.07
2019-04-05T15:15:18.752Z,18.17
2019-04-05T15:17:48.568Z,20.40
2019-04-05T15:20:17.575Z,18.77
2019-04-05T15:22:45.128Z,18.70
2019-04-05T15:25:16.665Z,17.27
2019-04-05T15:27:42.626Z,17.10
2019-04-05T15:30:10.277Z,17.53
2019-04-05T15:32:37.816Z,18.00
2019-04-05T15:35:05.966Z,17.23
2019-04-05T15:37:33.417Z,16.27
2019-04-05T15:40:01.131Z,16.83
2019-04-05T15:42:28.708Z,16.30
2019-04-05T15:44:56.351Z,18.47
2019-04-05T15:47:23.986Z,16.50
2019-04-05T15:49:52.031Z,17.70
2019-04-05T15:52:20.407Z,17.47
2019-04-05T15:54:48.424Z,17.53
2019-04-05T15:57:16.147Z,17.90
2019-04-05T15:59:45.079Z,18.10
2019-04-05T16:02:13.116Z,18.07
2019-04-05T16:04:40.861Z,18.27
2019-04-05T16:07:08.382Z,17.53
2019-04-05T16:09:36.066Z,17.33
2019-04-05T16:12:04.196Z,17.97
2019-04-05T16:14:34.243Z,18.90
2019-04-05T16:17:02.182Z,18.00
2019-04-05T16:19:29.694Z,18.10
2019-04-05T16:21:57.187Z,18.73
2019-04-05T16:24:24.706Z,17.80
2019-04-05T16:26:52.354Z,18.60
2019-04-05T16:29:20.178Z,18.33
2019-04-05T16:31:47.877Z,19.03
2019-04-05T16:34:16.707Z,19.90
2019-04-05T16:36:44.279Z,20.17
2019-04-05T16:39:14.763Z,21.57
2019-04-05T16:41:42.409Z,20.90
2019-04-05T16:44:10.031Z,25.33
2019-04-05T16:46:37.611Z,24.83
2019-04-05T16:49:05.263Z,23.00
2019-04-05T16:51:32.949Z,26.97
2019-04-05T16:54:01.619Z,24.67
2019-04-05T16:56:29.774Z,23.83
2019-04-05T16:58:57.752Z,24.83
2019-04-05T17:01:27.354Z,27.00
2019-04-05T17:03:55.011Z,25.53
2019-04-05T17:06:22.612Z,25.40
2019-04-05T17:08:50.277Z,26.00
2019-04-05T17:11:17.997Z,26.03
2019-04-05T17:13:45.921Z,27.10
2019-04-05T17:16:13.913Z,25.60
2019-04-05T17:18:41.572Z,25.00
2019-04-05T17:21:09.450Z,26.17
2019-04-05T17:23:37.627Z,27.10
2019-04-05T17:26:05.621Z,26.43
2019-04-05T17:28:33.731Z,26.27
2019-04-05T17:31:01.593Z,29.27
2019-04-05T17:33:30.462Z,28.17
2019-04-05T17:35:58.450Z,32.03
2019-04-05T17:38:26.260Z,30.70
2019-04-05T17:40:54.031Z,30.60
2019-04-05T17:43:21.847Z,29.70
2019-04-05T17:45:49.792Z,30.20
2019-04-05T17:48:17.717Z,30.37
2019-04-05T17:50:45.591Z,30.63
2019-04-05T17:53:13.634Z,31.40
2019-04-05T17:55:42.712Z,29.93
2019-04-05T17:58:10.667Z,31.63
2019-04-05T18:00:38.932Z,29.40
2019-04-05T18:03:07.016Z,31.80
2019-04-05T18:05:34.996Z,29.57
2019-04-05T18:08:02.957Z,31.77
2019-04-05T18:10:30.806Z,30.67
2019-04-05T18:12:59.821Z,32.80
2019-04-05T18:15:27.757Z,31.47
2019-04-05T18:17:55.467Z,30.60
2019-04-05T18:20:23.346Z,32.83
2019-04-05T18:22:51.143Z,33.23
2019-04-05T18:25:19.499Z,35.33
2019-04-05T18:27:47.426Z,33.30
2019-04-05T18:30:15.487Z,32.60
2019-04-05T18:32:43.451Z,32.60
2019-04-05T18:35:11.397Z,33.67
2019-04-05T18:37:39.353Z,32.90
2019-04-05T18:40:07.357Z,32.97
2019-04-05T18:42:35.332Z,33.53
2019-04-05T18:45:03.321Z,33.27
2019-04-05T18:47:31.352Z,33.50
2019-04-05T18:50:03.086Z,33.60
2019-04-05T18:52:29.487Z,33.83
2019-04-05T18:54:57.428Z,32.97
2019-04-05T18:57:25.267Z,32.63
2019-04-05T18:59:53.127Z,31.70
2019-04-05T19:02:21.106Z,33.20
2019-04-05T19:04:48.957Z,32.13
2019-04-05T19:07:17.012Z,33.23
2019-04-05T19:09:44.977Z,31.73
2019-04-05T19:12:14.357Z,33.73
2019-04-05T19:14:42.166Z,33.40
2019-04-05T19:17:23.188Z,35.50
2019-04-05T19:19:40.896Z,35.23
2019-04-05T19:22:08.786Z,34.83
2019-04-05T19:24:37.160Z,36.23
2019-04-05T19:27:05.142Z,35.93
2019-04-05T19:29:32.972Z,35.77
2019-04-05T19:49:29.489Z,38.50
2019-04-05T19:51:57.347Z,37.20
2019-04-05T19:54:26.494Z,38.13
2019-04-05T19:56:54.497Z,36.50
2019-04-05T19:59:23.392Z,36.33
2019-04-05T20:01:51.353Z,36.40
2019-04-05T20:04:19.346Z,36.73
2019-04-05T20:06:47.273Z,36.93
2019-04-05T20:09:16.502Z,37.03
2019-04-05T20:11:44.447Z,38.47
2019-04-05T20:14:13.346Z,37.23
2019-04-05T20:16:41.257Z,36.63
2019-04-05T20:19:09.169Z,36.73
2019-04-05T20:21:36.927Z,39.30
2019-04-05T20:24:13.677Z,36.10
2019-04-05T20:26:34.588Z,35.90
2019-04-05T20:29:02.295Z,35.30
2019-04-05T20:31:30.526Z,36.83
2019-04-05T20:33:59.486Z,38.27
2019-04-05T20:36:27.247Z,38.43
2019-04-05T20:38:55.166Z,41.23
2019-04-05T20:41:22.829Z,43.27
2019-04-05T20:43:51.821Z,40.07
2019-04-05T20:46:19.597Z,41.33
2019-04-05T20:48:47.346Z,40.27
2019-04-05T20:51:15.143Z,40.97
2019-04-05T20:53:42.767Z,40.17
2019-04-05T20:56:10.451Z,40.37
2019-04-05T20:58:38.147Z,41.47
2019-04-05T21:01:05.762Z,40.33
2019-04-05T21:03:33.257Z,41.67
2019-04-05T21:06:00.761Z,42.87
2019-04-05T21:08:29.335Z,41.53
2019-04-05T21:10:58.874Z,43.07
2019-04-05T21:13:26.163Z,42.53
2019-04-05T21:15:53.954Z,42.43
2019-04-05T21:18:22.017Z,48.07
2019-04-05T21:20:49.487Z,41.77
2019-04-05T21:23:17.001Z,43.60
2019-04-05T21:25:44.931Z,43.57
2019-04-05T21:28:12.601Z,45.00
2019-04-05T21:30:40.202Z,45.70
2019-04-05T21:33:07.682Z,45.47
2019-04-05T21:35:35.576Z,42.20
2019-04-05T21:38:03.532Z,42.87
2019-04-05T21:40:34.196Z,41.03
2019-04-05T21:43:02.080Z,42.40
2019-04-05T21:45:32.014Z,45.47
2019-04-05T21:48:01.689Z,46.37
2019-04-05T21:50:31.883Z,46.87
2019-04-05T21:52:59.661Z,44.43
2019-04-05T21:55:28.171Z,45.97
2019-04-05T21:57:55.874Z,47.23
2019-04-05T22:00:26.098Z,43.60
2019-04-05T22:02:55.820Z,47.07
2019-04-05T22:05:23.872Z,49.13
2019-04-05T22:07:51.700Z,50.37
2019-04-05T22:10:20.394Z,45.53
2019-04-05T22:12:47.910Z,49.87
2019-04-05T22:15:16.426Z,46.17
2019-04-05T22:17:48.088Z,47.20
2019-04-05T22:20:18.418Z,48.40
2019-04-05T22:22:48.147Z,48.13
2019-04-05T22:25:15.579Z,45.30
2019-04-05T22:27:44.076Z,49.87
2019-04-05T22:30:12.782Z,50.07
2019-04-05T22:32:40.227Z,49.30
2019-04-05T22:35:08.927Z,49.77
2019-04-05T22:37:36.331Z,51.63
2019-04-05T22:40:04.472Z,48.63
2019-04-05T22:42:31.874Z,51.23
2019-04-05T22:44:59.322Z,50.50
2019-04-05T22:47:26.711Z,48.40
2019-04-05T22:49:54.172Z,50.83
2019-04-05T22:52:21.596Z,50.87
2019-04-05T22:54:49.027Z,51.97
2019-04-05T22:57:16.397Z,55.40
2019-04-05T22:59:43.842Z,50.23
2019-04-05T23:02:11.777Z,50.57
2019-04-05T23:04:39.292Z,55.30
2019-04-05T23:07:06.752Z,55.33
2019-04-05T23:09:34.208Z,57.37
2019-04-05T23:12:01.607Z,54.10
2019-04-05T23:14:29.054Z,54.07
2019-04-05T23:16:56.416Z,59.67
2019-04-05T23:19:23.906Z,55.70
2019-04-05T23:21:51.297Z,57.50
2019-04-05T23:24:18.722Z,58.93
2019-04-05T23:26:46.117Z,56.70
2019-04-05T23:29:13.573Z,55.00
2019-04-05T23:31:40.967Z,54.40
2019-04-05T23:34:10.720Z,56.30
2019-04-05T23:36:38.167Z,50.67
2019-04-05T23:39:06.227Z,51.13
2019-04-05T23:41:33.618Z,52.17
2019-04-05T23:44:01.080Z,51.20
2019-04-05T23:46:28.462Z,49.23
2019-04-05T23:48:55.911Z,48.10
2019-04-05T23:51:23.332Z,49.43
2019-04-05T23:53:51.247Z,48.17
2019-04-05T23:56:18.736Z,45.57
2019-04-05T23:58:46.107Z,47.00
